sensor_id;sensor_type;location;lat;lon;timestamp;P1;durP1;ratioP1;P2;durP2;ratioP2
13520;SDS011;6832;51.186;3.236;2024-01-11T12:24:38;117.60;;;80.57;;
13520;SDS011;6832;51.186;3.236;2024-01-11T12:27:05;123.40;;;76.40;;
13520;SDS011;6832;51.186;3.236;2024-01-11T12:29:32;79.63;;;72.60;;
13520;SDS011;6832;51.186;3.236;2024-01-11T12:31:59;109.00;;;63.13;;
13520;SDS011;6832;51.186;3.236;2024-01-11T12:34:26;70.37;;;63.27;;
13520;SDS011;6832;51.186;3.236;2024-01-11T12:36:54;69.40;;;62.37;;
13520;SDS011;6832;51.186;3.236;2024-01-11T12:39:25;108.10;;;99.20;;
13520;SDS011;6832;51.186;3.236;2024-01-11T12:41:55;87.30;;;79.47;;
13520;SDS011;6832;51.186;3.236;2024-01-11T12:44:23;79.50;;;71.80;;
13520;SDS011;6832;51.186;3.236;2024-01-11T12:46:50;102.80;;;94.63;;
13520;SDS011;6832;51.186;3.236;2024-01-11T12:49:18;96.90;;;88.37;;
13520;SDS011;6832;51.186;3.236;2024-01-11T12:51:45;103.23;;;92.47;;
13520;SDS011;6832;51.186;3.236;2024-01-11T12:54:12;98.30;;;86.77;;
13520;SDS011;6832;51.186;3.236;2024-01-11T12:56:40;88.30;;;79.93;;
13520;SDS011;6832;51.186;3.236;2024-01-11T12:59:09;105.33;;;76.60;;
13520;SDS011;6832;51.186;3.236;2024-01-11T13:01:37;66.28;;;33.83;;
13520;SDS011;6832;51.186;3.236;2024-01-11T13:04:04;78.97;;;32.77;;
13520;SDS011;6832;51.186;3.236;2024-01-11T13:06:33;49.33;;;31.63;;
13520;SDS011;6832;51.186;3.236;2024-01-11T13:09:00;56.63;;;31.03;;
13520;SDS011;6832;51.186;3.236;2024-01-11T13:11:28;37.80;;;28.63;;
13520;SDS011;6832;51.186;3.236;2024-01-11T13:13:55;54.50;;;29.70;;
13520;SDS011;6832;51.186;3.236;2024-01-11T13:16:27;53.73;;;31.00;;
13520;SDS011;6832;51.186;3.236;2024-01-11T13:18:55;55.30;;;30.65;;
13520;SDS011;6832;51.186;3.236;2024-01-11T13:21:22;50.88;;;31.90;;
13520;SDS011;6832;51.186;3.236;2024-01-11T13:23:49;52.75;;;29.58;;
13520;SDS011;6832;51.186;3.236;2024-01-11T13:26:16;85.10;;;32.60;;
13520;SDS011;6832;51.186;3.236;2024-01-11T13:28:42;77.38;;;33.65;;
13520;SDS011;6832;51.186;3.236;2024-01-11T13:31:09;48.60;;;31.02;;
13520;SDS011;6832;51.186;3.236;2024-01-11T13:33:38;57.38;;;31.23;;
13520;SDS011;6832;51.186;3.236;2024-01-11T13:36:06;49.47;;;30.60;;
13520;SDS011;6832;51.186;3.236;2024-01-11T13:38:33;58.40;;;32.88;;
13520;SDS011;6832;51.186;3.236;2024-01-11T13:41:01;50.55;;;31.30;;
13520;SDS011;6832;51.186;3.236;2024-01-11T13:43:27;57.05;;;31.75;;
13520;SDS011;6832;51.186;3.236;2024-01-11T13:45:54;49.95;;;29.85;;
13520;SDS011;6832;51.186;3.236;2024-01-11T13:48:21;47.38;;;28.83;;
13520;SDS011;6832;51.186;3.236;2024-01-11T13:50:50;46.22;;;27.30;;
13520;SDS011;6832;51.186;3.236;2024-01-11T13:53:17;47.50;;;30.45;;
13520;SDS011;6832;51.186;3.236;2024-01-11T13:55:43;52.47;;;29.90;;
13520;SDS011;6832;51.186;3.236;2024-01-11T13:58:10;86.78;;;33.30;;
13520;SDS011;6832;51.186;3.236;2024-01-11T14:00:38;52.80;;;30.42;;
13520;SDS011;6832;51.186;3.236;2024-01-11T14:03:05;57.72;;;30.85;;
13520;SDS011;6832;51.186;3.236;2024-01-11T14:05:33;90.72;;;31.45;;
13520;SDS011;6832;51.186;3.236;2024-01-11T14:08:02;51.35;;;26.83;;
13520;SDS011;6832;51.186;3.236;2024-01-11T14:10:32;86.88;;;32.22;;
13520;SDS011;6832;51.186;3.236;2024-01-11T14:12:59;46.45;;;28.52;;
13520;SDS011;6832;51.186;3.236;2024-01-11T14:15:26;40.78;;;28.67;;
13520;SDS011;6832;51.186;3.236;2024-01-11T14:17:54;50.63;;;29.55;;
13520;SDS011;6832;51.186;3.236;2024-01-11T14:20:21;56.38;;;28.38;;
13520;SDS011;6832;51.186;3.236;2024-01-11T14:22:49;53.15;;;30.25;;
13520;SDS011;6832;51.186;3.236;2024-01-11T14:25:18;47.42;;;27.73;;
13520;SDS011;6832;51.186;3.236;2024-01-11T14:27:46;45.33;;;27.63;;
13520;SDS011;6832;51.186;3.236;2024-01-11T14:30:14;44.13;;;30.30;;
13520;SDS011;6832;51.186;3.236;2024-01-11T14:32:41;78.97;;;29.65;;
13520;SDS011;6832;51.186;3.236;2024-01-11T14:35:08;49.88;;;28.45;;
13520;SDS011;6832;51.186;3.236;2024-01-11T14:37:36;43.42;;;28.00;;
13520;SDS011;6832;51.186;3.236;2024-01-11T14:40:04;42.17;;;27.02;;
13520;SDS011;6832;51.186;3.236;2024-01-11T14:42:33;42.95;;;26.88;;
13520;SDS011;6832;51.186;3.236;2024-01-11T14:45:00;48.90;;;27.90;;
13520;SDS011;6832;51.186;3.236;2024-01-11T14:47:28;57.50;;;28.08;;
13520;SDS011;6832;51.186;3.236;2024-01-11T14:49:56;47.00;;;26.08;;
13520;SDS011;6832;51.186;3.236;2024-01-11T14:52:24;47.47;;;26.60;;
13520;SDS011;6832;51.186;3.236;2024-01-11T14:54:53;49.13;;;26.90;;
13520;SDS011;6832;51.186;3.236;2024-01-11T14:57:20;42.20;;;26.38;;
13520;SDS011;6832;51.186;3.236;2024-01-11T14:59:48;43.67;;;27.08;;
13520;SDS011;6832;51.186;3.236;2024-01-11T15:02:15;46.20;;;26.92;;
13520;SDS011;6832;51.186;3.236;2024-01-11T15:04:42;47.83;;;25.58;;
13520;SDS011;6832;51.186;3.236;2024-01-11T15:07:09;46.25;;;26.17;;
13520;SDS011;6832;51.186;3.236;2024-01-11T15:09:36;49.22;;;27.58;;
13520;SDS011;6832;51.186;3.236;2024-01-11T15:12:03;46.90;;;27.58;;
13520;SDS011;6832;51.186;3.236;2024-01-11T15:14:31;56.15;;;26.23;;
13520;SDS011;6832;51.186;3.236;2024-01-11T15:16:59;51.85;;;27.05;;
13520;SDS011;6832;51.186;3.236;2024-01-11T15:19:27;42.63;;;26.45;;
13520;SDS011;6832;51.186;3.236;2024-01-11T15:21:54;52.35;;;26.65;;
13520;SDS011;6832;51.186;3.236;2024-01-11T15:24:21;46.22;;;26.50;;
13520;SDS011;6832;51.186;3.236;2024-01-11T15:26:48;43.38;;;25.90;;
13520;SDS011;6832;51.186;3.236;2024-01-11T15:42:04;96.27;;;38.37;;
13520;SDS011;6832;51.186;3.236;2024-01-11T15:44:38;112.57;;;46.27;;
13520;SDS011;6832;51.186;3.236;2024-01-11T15:47:12;104.90;;;38.57;;
13520;SDS011;6832;51.186;3.236;2024-01-11T15:49:41;110.40;;;44.20;;
13520;SDS011;6832;51.186;3.236;2024-01-11T15:52:08;121.37;;;51.07;;
13520;SDS011;6832;51.186;3.236;2024-01-11T15:54:40;107.97;;;85.60;;
13520;SDS011;6832;51.186;3.236;2024-01-11T15:57:12;81.30;;;24.47;;
13520;SDS011;6832;51.186;3.236;2024-01-11T15:59:40;81.17;;;29.33;;
13520;SDS011;6832;51.186;3.236;2024-01-11T16:02:11;71.27;;;23.43;;
13520;SDS011;6832;51.186;3.236;2024-01-11T16:04:43;80.50;;;52.37;;
13520;SDS011;6832;51.186;3.236;2024-01-11T16:07:10;82.97;;;22.50;;
13520;SDS011;6832;51.186;3.236;2024-01-11T16:09:41;93.27;;;28.43;;
13520;SDS011;6832;51.186;3.236;2024-01-11T16:12:11;81.23;;;31.50;;
13520;SDS011;6832;51.186;3.236;2024-01-11T16:14:39;85.90;;;30.53;;
13520;SDS011;6832;51.186;3.236;2024-01-11T16:17:12;74.30;;;34.10;;
13520;SDS011;6832;51.186;3.236;2024-01-11T16:19:40;97.63;;;34.37;;
13520;SDS011;6832;51.186;3.236;2024-01-11T16:22:08;112.33;;;32.37;;
13520;SDS011;6832;51.186;3.236;2024-01-11T16:24:36;86.47;;;31.50;;
13520;SDS011;6832;51.186;3.236;2024-01-11T16:27:14;73.33;;;23.47;;
13520;SDS011;6832;51.186;3.236;2024-01-11T16:29:45;53.70;;;20.97;;
13520;SDS011;6832;51.186;3.236;2024-01-11T16:32:20;50.47;;;20.43;;
13520;SDS011;6832;51.186;3.236;2024-01-11T16:34:57;51.93;;;25.47;;
13520;SDS011;6832;51.186;3.236;2024-01-11T16:37:27;73.77;;;31.97;;
13520;SDS011;6832;51.186;3.236;2024-01-11T16:39:54;78.20;;;21.20;;
13520;SDS011;6832;51.186;3.236;2024-01-11T16:42:26;54.27;;;19.03;;
13520;SDS011;6832;51.186;3.236;2024-01-11T16:44:59;71.03;;;22.20;;
13520;SDS011;6832;51.186;3.236;2024-01-11T16:47:29;77.83;;;27.20;;
13520;SDS011;6832;51.186;3.236;2024-01-11T16:50:02;77.33;;;29.50;;
13520;SDS011;6832;51.186;3.236;2024-01-11T16:52:30;147.27;;;29.10;;
13520;SDS011;6832;51.186;3.236;2024-01-11T16:54:59;83.43;;;23.83;;
13520;SDS011;6832;51.186;3.236;2024-01-11T16:57:28;125.30;;;28.13;;
13520;SDS011;6832;51.186;3.236;2024-01-11T16:59:55;93.53;;;36.50;;
13520;SDS011;6832;51.186;3.236;2024-01-11T17:02:23;98.07;;;37.70;;
13520;SDS011;6832;51.186;3.236;2024-01-11T17:04:53;111.00;;;39.10;;
13520;SDS011;6832;51.186;3.236;2024-01-11T17:07:20;96.77;;;24.73;;
13520;SDS011;6832;51.186;3.236;2024-01-11T17:09:48;109.83;;;41.77;;
13520;SDS011;6832;51.186;3.236;2024-01-11T17:12:16;93.57;;;31.87;;
13520;SDS011;6832;51.186;3.236;2024-01-11T17:14:48;96.03;;;42.17;;
13520;SDS011;6832;51.186;3.236;2024-01-11T17:17:17;85.93;;;38.07;;
13520;SDS011;6832;51.186;3.236;2024-01-11T17:19:44;83.70;;;30.40;;
13520;SDS011;6832;51.186;3.236;2024-01-11T17:22:15;97.13;;;35.30;;
13520;SDS011;6832;51.186;3.236;2024-01-11T17:24:44;74.00;;;22.40;;
13520;SDS011;6832;51.186;3.236;2024-01-11T17:27:19;91.70;;;26.03;;
13520;SDS011;6832;51.186;3.236;2024-01-11T17:30:01;73.97;;;24.87;;
13520;SDS011;6832;51.186;3.236;2024-01-11T17:32:32;89.83;;;34.40;;
13520;SDS011;6832;51.186;3.236;2024-01-11T17:35:00;95.40;;;40.10;;
13520;SDS011;6832;51.186;3.236;2024-01-11T17:37:36;100.87;;;32.00;;
13520;SDS011;6832;51.186;3.236;2024-01-11T17:40:07;107.73;;;44.37;;
13520;SDS011;6832;51.186;3.236;2024-01-11T17:42:47;120.07;;;35.37;;
13520;SDS011;6832;51.186;3.236;2024-01-11T17:45:16;81.43;;;34.13;;
13520;SDS011;6832;51.186;3.236;2024-01-11T17:47:53;82.80;;;30.87;;
13520;SDS011;6832;51.186;3.236;2024-01-11T17:50:26;92.53;;;33.97;;
13520;SDS011;6832;51.186;3.236;2024-01-11T17:52:58;96.27;;;38.47;;
13520;SDS011;6832;51.186;3.236;2024-01-11T17:55:31;85.67;;;29.23;;
13520;SDS011;6832;51.186;3.236;2024-01-11T17:58:09;106.57;;;32.43;;
13520;SDS011;6832;51.186;3.236;2024-01-11T18:00:42;91.33;;;36.37;;
13520;SDS011;6832;51.186;3.236;2024-01-11T18:03:12;68.53;;;31.57;;
13520;SDS011;6832;51.186;3.236;2024-01-11T18:05:46;71.90;;;29.53;;
13520;SDS011;6832;51.186;3.236;2024-01-11T18:08:27;87.40;;;32.70;;
13520;SDS011;6832;51.186;3.236;2024-01-11T18:10:58;65.50;;;32.63;;
13520;SDS011;6832;51.186;3.236;2024-01-11T18:13:27;77.43;;;35.93;;
13520;SDS011;6832;51.186;3.236;2024-01-11T18:18:49;112.73;;;35.10;;
13520;SDS011;6832;51.186;3.236;2024-01-11T18:21:25;97.23;;;42.67;;
13520;SDS011;6832;51.186;3.236;2024-01-11T18:23:55;111.60;;;37.00;;
13520;SDS011;6832;51.186;3.236;2024-01-11T18:26:23;78.57;;;28.93;;
13520;SDS011;6832;51.186;3.236;2024-01-11T18:28:55;88.47;;;42.43;;
13520;SDS011;6832;51.186;3.236;2024-01-11T18:31:27;95.13;;;36.87;;
13520;SDS011;6832;51.186;3.236;2024-01-11T18:34:06;102.57;;;49.57;;
13520;SDS011;6832;51.186;3.236;2024-01-11T18:38:57;104.47;;;32.00;;
13520;SDS011;6832;51.186;3.236;2024-01-11T18:40:21;105.03;;;36.47;;
13520;SDS011;6832;51.186;3.236;2024-01-11T18:43:29;95.93;;;50.33;;
13520;SDS011;6832;51.186;3.236;2024-01-11T18:46:14;108.20;;;38.47;;
13520;SDS011;6832;51.186;3.236;2024-01-11T18:52:00;167.53;;;46.90;;
13520;SDS011;6832;51.186;3.236;2024-01-11T18:54:45;120.63;;;48.00;;
13520;SDS011;6832;51.186;3.236;2024-01-11T18:57:40;123.73;;;31.33;;
13520;SDS011;6832;51.186;3.236;2024-01-11T19:00:43;89.37;;;28.33;;
13520;SDS011;6832;51.186;3.236;2024-01-11T19:03:17;99.17;;;34.67;;
13520;SDS011;6832;51.186;3.236;2024-01-11T19:06:04;79.37;;;34.00;;
13520;SDS011;6832;51.186;3.236;2024-01-11T19:08:56;95.40;;;35.53;;
13520;SDS011;6832;51.186;3.236;2024-01-11T19:11:32;101.93;;;51.40;;
13520;SDS011;6832;51.186;3.236;2024-01-11T19:14:05;121.13;;;46.97;;
13520;SDS011;6832;51.186;3.236;2024-01-11T19:16:44;128.10;;;40.07;;
13520;SDS011;6832;51.186;3.236;2024-01-11T19:19:24;81.93;;;37.37;;
13520;SDS011;6832;51.186;3.236;2024-01-11T19:22:07;93.20;;;39.13;;
13520;SDS011;6832;51.186;3.236;2024-01-11T19:27:33;106.93;;;45.80;;
13520;SDS011;6832;51.186;3.236;2024-01-11T19:30:16;95.40;;;39.93;;
13520;SDS011;6832;51.186;3.236;2024-01-11T19:33:00;105.67;;;42.00;;
13520;SDS011;6832;51.186;3.236;2024-01-11T19:35:40;115.20;;;43.20;;
13520;SDS011;6832;51.186;3.236;2024-01-11T19:44:47;122.90;;;53.33;;
13520;SDS011;6832;51.186;3.236;2024-01-11T19:47:26;93.93;;;29.93;;
13520;SDS011;6832;51.186;3.236;2024-01-11T19:50:22;93.03;;;30.00;;
13520;SDS011;6832;51.186;3.236;2024-01-11T19:53:09;81.47;;;28.20;;
13520;SDS011;6832;51.186;3.236;2024-01-11T19:55:48;106.17;;;31.13;;
13520;SDS011;6832;51.186;3.236;2024-01-11T19:58:36;86.70;;;29.23;;
13520;SDS011;6832;51.186;3.236;2024-01-11T20:05:01;95.40;;;31.10;;
13520;SDS011;6832;51.186;3.236;2024-01-11T20:07:36;98.73;;;28.57;;
13520;SDS011;6832;51.186;3.236;2024-01-11T20:21:05;113.30;;;30.73;;
13520;SDS011;6832;51.186;3.236;2024-01-11T20:24:09;117.43;;;33.57;;
13520;SDS011;6832;51.186;3.236;2024-01-11T20:27:27;121.83;;;29.27;;
13520;SDS011;6832;51.186;3.236;2024-01-11T20:32:02;95.63;;;30.03;;
13520;SDS011;6832;51.186;3.236;2024-01-11T20:34:22;105.00;;;32.90;;
13520;SDS011;6832;51.186;3.236;2024-01-11T20:47:01;99.80;;;33.13;;
13520;SDS011;6832;51.186;3.236;2024-01-11T20:49:56;125.67;;;41.00;;
13520;SDS011;6832;51.186;3.236;2024-01-11T20:53:14;115.27;;;38.30;;
13520;SDS011;6832;51.186;3.236;2024-01-11T20:56:13;115.57;;;33.67;;
13520;SDS011;6832;51.186;3.236;2024-01-11T20:59:08;100.50;;;32.20;;
13520;SDS011;6832;51.186;3.236;2024-01-11T21:08:45;95.57;;;32.03;;
